FDX643 KDFW-KMEM
Flight info
| Callsign | FDX643 |
|---|---|
| Flight time | N/A |
| Altitude | 31000 |
| Route | FORCK3 FORCK ELD HOBRK4 |
| Aircraft | MD11/H-SDE1E2E3FGHIJ2J3J4J5M1RWXY/LB1D1 |
Departure
| Time | 2026-04-30 14:41 |
|---|---|
| Airport | Dallas Fort Worth International Airport (KDFW) |
Arrival
| Time | N/A |
|---|---|
| Airport | Memphis International Airport (KMEM) |
| Time | Latitude | Longitude | Altitude | Speed | Heading |
|---|---|---|---|---|---|
| 2026-04-30 14:16 | 32.89561 | -97.05911 | 598 ft | 0 kts | 180° |
| 2026-04-30 14:27 | 32.89574 | -97.05911 | 599 ft | 2 kts | 180° |
| 2026-04-30 14:27 | 32.89590 | -97.05911 | 599 ft | 2 kts | 181° |
| 2026-04-30 14:28 | 32.89613 | -97.05911 | 599 ft | 2 kts | 180° |
| 2026-04-30 14:28 | 32.89628 | -97.05913 | 600 ft | 2 kts | 159° |
| 2026-04-30 14:28 | 32.89640 | -97.05922 | 599 ft | 2 kts | 141° |
| 2026-04-30 14:28 | 32.89650 | -97.05934 | 599 ft | 2 kts | 124° |
| 2026-04-30 14:29 | 32.89658 | -97.05964 | 598 ft | 0 kts | 91° |
| 2026-04-30 14:29 | 32.89658 | -97.05969 | 598 ft | 0 kts | 89° |
| 2026-04-30 14:31 | 32.89658 | -97.05864 | 602 ft | 9 kts | 90° |
| 2026-04-30 14:31 | 32.89629 | -97.05804 | 603 ft | 10 kts | 158° |
| 2026-04-30 14:32 | 32.89413 | -97.05794 | 599 ft | 20 kts | 180° |
| 2026-04-30 14:32 | 32.89274 | -97.05794 | 596 ft | 19 kts | 179° |
| 2026-04-30 14:32 | 32.89144 | -97.05795 | 594 ft | 15 kts | 180° |
| 2026-04-30 14:33 | 32.89053 | -97.05741 | 593 ft | 17 kts | 104° |
| 2026-04-30 14:33 | 32.89045 | -97.05439 | 595 ft | 20 kts | 90° |
| 2026-04-30 14:33 | 32.89044 | -97.05270 | 593 ft | 19 kts | 90° |
| 2026-04-30 14:34 | 32.89044 | -97.05096 | 592 ft | 22 kts | 89° |
| 2026-04-30 14:34 | 32.89040 | -97.04941 | 591 ft | 14 kts | 109° |
| 2026-04-30 14:34 | 32.88945 | -97.04893 | 589 ft | 18 kts | 180° |
| 2026-04-30 14:34 | 32.88808 | -97.04893 | 587 ft | 20 kts | 180° |
| 2026-04-30 14:35 | 32.88480 | -97.04894 | 580 ft | 26 kts | 181° |
| 2026-04-30 14:35 | 32.88340 | -97.04895 | 577 ft | 21 kts | 180° |
| 2026-04-30 14:35 | 32.88187 | -97.04896 | 577 ft | 19 kts | 180° |
| 2026-04-30 14:36 | 32.88051 | -97.04896 | 574 ft | 21 kts | 179° |
| 2026-04-30 14:36 | 32.87971 | -97.04896 | 574 ft | 6 kts | 185° |
| 2026-04-30 14:36 | 32.87951 | -97.04902 | 574 ft | 0 kts | 202° |
| 2026-04-30 14:39 | 32.87944 | -97.04905 | 574 ft | 3 kts | 205° |
| 2026-04-30 14:40 | 32.87910 | -97.05045 | 571 ft | 12 kts | 274° |
| 2026-04-30 14:40 | 32.87957 | -97.05092 | 572 ft | 1 kts | 359° |
| 2026-04-30 14:40 | 32.87960 | -97.05092 | 572 ft | 1 kts | 359° |
| 2026-04-30 14:40 | 32.88083 | -97.05093 | 574 ft | 52 kts | 359° |
| 2026-04-30 14:41 | 32.88728 | -97.05087 | 585 ft | 130 kts | 1° |
| 2026-04-30 14:41 | 32.89827 | -97.05084 | 706 ft | 178 kts | 4° |
| 2026-04-30 14:41 | 32.91040 | -97.05039 | 1517 ft | 174 kts | 7° |
| 2026-04-30 14:41 | 32.92236 | -97.04910 | 2339 ft | 176 kts | 14° |
| 2026-04-30 14:42 | 32.93478 | -97.04527 | 2957 ft | 194 kts | 22° |
| 2026-04-30 14:42 | 32.94784 | -97.03908 | 3606 ft | 215 kts | 27° |
| 2026-04-30 14:42 | 32.96183 | -97.03106 | 4371 ft | 234 kts | 29° |
| 2026-04-30 14:42 | 32.97661 | -97.02222 | 5376 ft | 247 kts | 28° |
| 2026-04-30 14:43 | 32.99222 | -97.01289 | 6469 ft | 258 kts | 31° |
| 2026-04-30 14:43 | 33.00652 | -97.00020 | 7569 ft | 269 kts | 45° |
| 2026-04-30 14:43 | 33.01704 | -96.98142 | 8594 ft | 284 kts | 69° |
| 2026-04-30 14:43 | 33.02042 | -96.95827 | 9587 ft | 297 kts | 91° |
| 2026-04-30 14:44 | 33.01858 | -96.93346 | 10513 ft | 313 kts | 99° |
| 2026-04-30 14:44 | 33.01483 | -96.90662 | 11120 ft | 343 kts | 100° |
| 2026-04-30 14:44 | 33.01014 | -96.87766 | 11672 ft | 373 kts | 104° |
| 2026-04-30 14:44 | 33.00261 | -96.84700 | 12386 ft | 395 kts | 111° |
| 2026-04-30 14:45 | 32.99184 | -96.81660 | 13355 ft | 409 kts | 116° |
| 2026-04-30 14:45 | 32.97948 | -96.78619 | 14437 ft | 418 kts | 118° |
| 2026-04-30 14:45 | 32.96634 | -96.75496 | 15492 ft | 429 kts | 118° |
| 2026-04-30 14:45 | 32.95295 | -96.72282 | 16522 ft | 439 kts | 118° |
| 2026-04-30 14:46 | 32.93963 | -96.69003 | 17556 ft | 448 kts | 117° |
| 2026-04-30 14:46 | 32.92613 | -96.65635 | 18522 ft | 458 kts | 117° |
| 2026-04-30 14:46 | 32.92291 | -96.64825 | 18745 ft | 460 kts | 118° |